Terminal Aerodrome Forecast
Issued by NWS

Home | Current Version | Previous Version | Graphics & Text | Print | Product List | Glossary On
Versions: 1 2 3 4 5 6 7 8 9 10 11 12 13 14 15 16 17 18
000
FTUS41 KCLE 161120
TAFFDY
TAF
KFDY 161120Z 1612/1712 28015G25KT P6SM OVC025
      TEMPO 1612/1616 BKN015
     FM161800 30015G25KT P6SM OVC035
     FM162300 30008KT P6SM BKN035=

USA.gov is the U.S. government's official web portal to all federal, state and local government web resources and services.